sensor_id;sensor_type;location;lat;lon;timestamp;P1;durP1;ratioP1;P2;durP2;ratioP2
6392;SDS011;3229;42.674;23.282;2023-02-04T00:00:00;11.10;;;6.20;;
6392;SDS011;3229;42.674;23.282;2023-02-04T00:02:26;11.67;;;6.50;;
6392;SDS011;3229;42.674;23.282;2023-02-04T00:04:56;8.20;;;6.33;;
6392;SDS011;3229;42.674;23.282;2023-02-04T00:07:23;6.50;;;5.60;;
6392;SDS011;3229;42.674;23.282;2023-02-04T00:09:50;7.90;;;6.00;;
6392;SDS011;3229;42.674;23.282;2023-02-04T00:12:16;10.53;;;6.17;;
6392;SDS011;3229;42.674;23.282;2023-02-04T00:14:43;8.23;;;5.97;;
6392;SDS011;3229;42.674;23.282;2023-02-04T00:17:10;8.67;;;6.00;;
6392;SDS011;3229;42.674;23.282;2023-02-04T00:19:37;8.43;;;5.40;;
6392;SDS011;3229;42.674;23.282;2023-02-04T00:22:06;10.13;;;6.13;;
6392;SDS011;3229;42.674;23.282;2023-02-04T00:24:33;8.07;;;5.77;;
6392;SDS011;3229;42.674;23.282;2023-02-04T00:27:00;6.83;;;4.93;;
6392;SDS011;3229;42.674;23.282;2023-02-04T00:29:27;7.50;;;4.97;;
6392;SDS011;3229;42.674;23.282;2023-02-04T00:31:54;7.80;;;5.13;;
6392;SDS011;3229;42.674;23.282;2023-02-04T00:34:21;7.60;;;4.57;;
6392;SDS011;3229;42.674;23.282;2023-02-04T00:36:48;7.67;;;5.43;;
6392;SDS011;3229;42.674;23.282;2023-02-04T00:39:16;6.27;;;5.17;;
6392;SDS011;3229;42.674;23.282;2023-02-04T00:41:43;9.47;;;5.20;;
6392;SDS011;3229;42.674;23.282;2023-02-04T00:44:10;8.23;;;4.50;;
6392;SDS011;3229;42.674;23.282;2023-02-04T00:46:38;7.47;;;4.43;;
6392;SDS011;3229;42.674;23.282;2023-02-04T00:49:05;6.50;;;4.30;;
6392;SDS011;3229;42.674;23.282;2023-02-04T00:51:34;7.47;;;4.73;;
6392;SDS011;3229;42.674;23.282;2023-02-04T00:54:02;9.80;;;4.63;;
6392;SDS011;3229;42.674;23.282;2023-02-04T00:56:30;6.73;;;4.93;;
6392;SDS011;3229;42.674;23.282;2023-02-04T00:58:58;6.93;;;4.60;;
6392;SDS011;3229;42.674;23.282;2023-02-04T01:01:25;6.50;;;4.43;;
6392;SDS011;3229;42.674;23.282;2023-02-04T01:03:51;6.80;;;4.57;;
6392;SDS011;3229;42.674;23.282;2023-02-04T01:06:18;8.30;;;3.93;;
6392;SDS011;3229;42.674;23.282;2023-02-04T01:08:45;5.53;;;4.23;;
6392;SDS011;3229;42.674;23.282;2023-02-04T01:11:12;5.70;;;4.10;;
6392;SDS011;3229;42.674;23.282;2023-02-04T01:13:40;6.47;;;4.50;;
6392;SDS011;3229;42.674;23.282;2023-02-04T01:16:07;6.53;;;4.47;;
6392;SDS011;3229;42.674;23.282;2023-02-04T01:18:34;7.33;;;4.03;;
6392;SDS011;3229;42.674;23.282;2023-02-04T01:21:01;6.57;;;4.10;;
6392;SDS011;3229;42.674;23.282;2023-02-04T01:23:28;5.37;;;4.10;;
6392;SDS011;3229;42.674;23.282;2023-02-04T01:25:54;6.07;;;4.30;;
6392;SDS011;3229;42.674;23.282;2023-02-04T01:28:22;4.77;;;4.10;;
6392;SDS011;3229;42.674;23.282;2023-02-04T01:30:50;4.67;;;3.97;;
6392;SDS011;3229;42.674;23.282;2023-02-04T01:33:17;4.30;;;3.90;;
6392;SDS011;3229;42.674;23.282;2023-02-04T01:35:44;4.07;;;3.67;;
6392;SDS011;3229;42.674;23.282;2023-02-04T01:38:10;4.73;;;3.60;;
6392;SDS011;3229;42.674;23.282;2023-02-04T01:40:37;4.63;;;3.77;;
6392;SDS011;3229;42.674;23.282;2023-02-04T01:43:05;6.27;;;3.97;;
6392;SDS011;3229;42.674;23.282;2023-02-04T01:45:32;4.97;;;4.20;;
6392;SDS011;3229;42.674;23.282;2023-02-04T01:48:01;4.27;;;3.87;;
6392;SDS011;3229;42.674;23.282;2023-02-04T01:50:29;6.03;;;3.90;;
6392;SDS011;3229;42.674;23.282;2023-02-04T01:52:56;3.80;;;3.50;;
6392;SDS011;3229;42.674;23.282;2023-02-04T01:55:25;4.70;;;4.00;;
6392;SDS011;3229;42.674;23.282;2023-02-04T01:57:54;4.57;;;3.63;;
6392;SDS011;3229;42.674;23.282;2023-02-04T02:00:23;4.20;;;3.80;;
6392;SDS011;3229;42.674;23.282;2023-02-04T02:02:51;5.40;;;4.57;;
6392;SDS011;3229;42.674;23.282;2023-02-04T02:05:21;5.10;;;4.60;;
6392;SDS011;3229;42.674;23.282;2023-02-04T02:07:50;5.50;;;4.07;;
6392;SDS011;3229;42.674;23.282;2023-02-04T02:10:19;4.63;;;4.00;;
6392;SDS011;3229;42.674;23.282;2023-02-04T02:12:46;5.00;;;4.40;;
6392;SDS011;3229;42.674;23.282;2023-02-04T02:15:14;5.80;;;4.50;;
6392;SDS011;3229;42.674;23.282;2023-02-04T02:17:43;5.50;;;4.67;;
6392;SDS011;3229;42.674;23.282;2023-02-04T02:20:11;6.13;;;4.40;;
6392;SDS011;3229;42.674;23.282;2023-02-04T02:22:43;5.27;;;4.40;;
6392;SDS011;3229;42.674;23.282;2023-02-04T02:25:19;6.83;;;4.30;;
6392;SDS011;3229;42.674;23.282;2023-02-04T02:27:46;5.23;;;4.53;;
6392;SDS011;3229;42.674;23.282;2023-02-04T02:30:13;4.03;;;3.73;;
6392;SDS011;3229;42.674;23.282;2023-02-04T02:32:41;5.17;;;4.10;;
6392;SDS011;3229;42.674;23.282;2023-02-04T02:35:09;4.47;;;4.03;;
6392;SDS011;3229;42.674;23.282;2023-02-04T02:37:36;5.83;;;4.37;;
6392;SDS011;3229;42.674;23.282;2023-02-04T02:40:03;5.67;;;4.70;;
6392;SDS011;3229;42.674;23.282;2023-02-04T02:42:32;5.23;;;4.07;;
6392;SDS011;3229;42.674;23.282;2023-02-04T02:44:59;4.83;;;3.83;;
6392;SDS011;3229;42.674;23.282;2023-02-04T02:47:32;4.60;;;3.93;;
6392;SDS011;3229;42.674;23.282;2023-02-04T02:49:58;5.80;;;3.57;;
6392;SDS011;3229;42.674;23.282;2023-02-04T02:52:25;6.07;;;4.40;;
6392;SDS011;3229;42.674;23.282;2023-02-04T02:54:52;5.33;;;4.10;;
6392;SDS011;3229;42.674;23.282;2023-02-04T02:57:19;5.40;;;4.30;;
6392;SDS011;3229;42.674;23.282;2023-02-04T02:59:49;5.00;;;4.17;;
6392;SDS011;3229;42.674;23.282;2023-02-04T03:02:18;5.97;;;3.97;;
6392;SDS011;3229;42.674;23.282;2023-02-04T03:04:47;5.80;;;4.33;;
6392;SDS011;3229;42.674;23.282;2023-02-04T03:07:17;6.77;;;3.90;;
6392;SDS011;3229;42.674;23.282;2023-02-04T03:09:47;5.27;;;4.40;;
6392;SDS011;3229;42.674;23.282;2023-02-04T03:12:15;5.57;;;4.47;;
6392;SDS011;3229;42.674;23.282;2023-02-04T03:14:42;5.97;;;4.33;;
6392;SDS011;3229;42.674;23.282;2023-02-04T03:17:10;5.60;;;4.60;;
6392;SDS011;3229;42.674;23.282;2023-02-04T03:19:37;5.70;;;4.63;;
6392;SDS011;3229;42.674;23.282;2023-02-04T03:22:04;4.33;;;3.87;;
6392;SDS011;3229;42.674;23.282;2023-02-04T03:24:32;4.50;;;4.10;;
6392;SDS011;3229;42.674;23.282;2023-02-04T03:26:59;6.33;;;4.20;;
6392;SDS011;3229;42.674;23.282;2023-02-04T03:29:26;4.63;;;3.43;;
6392;SDS011;3229;42.674;23.282;2023-02-04T03:31:53;6.57;;;4.53;;
6392;SDS011;3229;42.674;23.282;2023-02-04T03:34:21;5.13;;;4.37;;
6392;SDS011;3229;42.674;23.282;2023-02-04T03:36:48;6.50;;;4.00;;
6392;SDS011;3229;42.674;23.282;2023-02-04T03:39:15;5.23;;;4.00;;
6392;SDS011;3229;42.674;23.282;2023-02-04T03:41:42;4.83;;;4.23;;
6392;SDS011;3229;42.674;23.282;2023-02-04T03:44:08;5.17;;;4.50;;
6392;SDS011;3229;42.674;23.282;2023-02-04T03:46:35;5.43;;;4.33;;
6392;SDS011;3229;42.674;23.282;2023-02-04T03:49:02;6.17;;;4.23;;
6392;SDS011;3229;42.674;23.282;2023-02-04T03:51:30;7.53;;;4.70;;
6392;SDS011;3229;42.674;23.282;2023-02-04T03:53:57;4.17;;;3.77;;
6392;SDS011;3229;42.674;23.282;2023-02-04T03:56:23;6.97;;;4.50;;
6392;SDS011;3229;42.674;23.282;2023-02-04T03:58:50;6.03;;;4.07;;
6392;SDS011;3229;42.674;23.282;2023-02-04T04:01:17;4.50;;;4.10;;
6392;SDS011;3229;42.674;23.282;2023-02-04T04:03:44;5.27;;;4.00;;
6392;SDS011;3229;42.674;23.282;2023-02-04T04:06:10;4.70;;;4.23;;
6392;SDS011;3229;42.674;23.282;2023-02-04T04:08:39;5.53;;;4.47;;
6392;SDS011;3229;42.674;23.282;2023-02-04T04:11:05;5.13;;;4.50;;
6392;SDS011;3229;42.674;23.282;2023-02-04T04:13:32;4.40;;;4.00;;
6392;SDS011;3229;42.674;23.282;2023-02-04T04:15:59;4.73;;;3.90;;
6392;SDS011;3229;42.674;23.282;2023-02-04T04:18:27;6.53;;;3.90;;
6392;SDS011;3229;42.674;23.282;2023-02-04T04:20:54;4.60;;;3.50;;
6392;SDS011;3229;42.674;23.282;2023-02-04T04:23:21;3.50;;;3.20;;
6392;SDS011;3229;42.674;23.282;2023-02-04T04:25:49;4.10;;;3.20;;
6392;SDS011;3229;42.674;23.282;2023-02-04T04:28:16;7.00;;;3.33;;
6392;SDS011;3229;42.674;23.282;2023-02-04T04:30:43;3.30;;;2.90;;
6392;SDS011;3229;42.674;23.282;2023-02-04T04:33:10;4.17;;;3.30;;
6392;SDS011;3229;42.674;23.282;2023-02-04T04:35:37;3.57;;;2.93;;
6392;SDS011;3229;42.674;23.282;2023-02-04T04:38:03;3.30;;;2.70;;
6392;SDS011;3229;42.674;23.282;2023-02-04T04:40:30;2.87;;;2.57;;
6392;SDS011;3229;42.674;23.282;2023-02-04T04:42:58;5.87;;;2.60;;
6392;SDS011;3229;42.674;23.282;2023-02-04T04:45:25;2.57;;;2.37;;
6392;SDS011;3229;42.674;23.282;2023-02-04T04:47:52;2.93;;;2.43;;
6392;SDS011;3229;42.674;23.282;2023-02-04T04:50:19;3.93;;;3.03;;
6392;SDS011;3229;42.674;23.282;2023-02-04T04:52:46;2.83;;;2.27;;
6392;SDS011;3229;42.674;23.282;2023-02-04T04:55:12;4.20;;;2.60;;
6392;SDS011;3229;42.674;23.282;2023-02-04T04:57:40;3.77;;;2.60;;
6392;SDS011;3229;42.674;23.282;2023-02-04T05:00:09;2.70;;;2.47;;
6392;SDS011;3229;42.674;23.282;2023-02-04T05:02:41;2.27;;;2.07;;
6392;SDS011;3229;42.674;23.282;2023-02-04T05:05:08;2.20;;;2.10;;
6392;SDS011;3229;42.674;23.282;2023-02-04T05:07:35;2.40;;;2.20;;
6392;SDS011;3229;42.674;23.282;2023-02-04T05:10:02;3.17;;;1.80;;
6392;SDS011;3229;42.674;23.282;2023-02-04T05:12:30;2.80;;;1.87;;
6392;SDS011;3229;42.674;23.282;2023-02-04T05:14:57;6.33;;;2.00;;
6392;SDS011;3229;42.674;23.282;2023-02-04T05:17:25;2.60;;;2.13;;
6392;SDS011;3229;42.674;23.282;2023-02-04T05:19:51;3.33;;;1.90;;
6392;SDS011;3229;42.674;23.282;2023-02-04T05:22:18;2.53;;;2.33;;
6392;SDS011;3229;42.674;23.282;2023-02-04T05:24:45;2.00;;;1.80;;
6392;SDS011;3229;42.674;23.282;2023-02-04T05:27:12;2.10;;;1.90;;
6392;SDS011;3229;42.674;23.282;2023-02-04T05:29:38;3.90;;;2.27;;
6392;SDS011;3229;42.674;23.282;2023-02-04T05:32:05;2.40;;;2.00;;
6392;SDS011;3229;42.674;23.282;2023-02-04T05:34:33;1.93;;;1.83;;
6392;SDS011;3229;42.674;23.282;2023-02-04T05:37:00;2.70;;;1.90;;
6392;SDS011;3229;42.674;23.282;2023-02-04T05:39:27;2.30;;;2.10;;
6392;SDS011;3229;42.674;23.282;2023-02-04T05:41:53;2.37;;;2.17;;
6392;SDS011;3229;42.674;23.282;2023-02-04T05:44:20;1.83;;;1.73;;
6392;SDS011;3229;42.674;23.282;2023-02-04T05:46:47;2.47;;;2.27;;
6392;SDS011;3229;42.674;23.282;2023-02-04T05:49:14;2.67;;;1.83;;
6392;SDS011;3229;42.674;23.282;2023-02-04T05:51:42;2.00;;;1.90;;
6392;SDS011;3229;42.674;23.282;2023-02-04T05:54:09;4.87;;;2.00;;
6392;SDS011;3229;42.674;23.282;2023-02-04T05:56:35;1.87;;;1.77;;
6392;SDS011;3229;42.674;23.282;2023-02-04T05:59:02;3.53;;;2.03;;
6392;SDS011;3229;42.674;23.282;2023-02-04T06:01:29;3.23;;;1.87;;
6392;SDS011;3229;42.674;23.282;2023-02-04T06:03:56;3.00;;;2.37;;
6392;SDS011;3229;42.674;23.282;2023-02-04T06:06:22;3.27;;;2.03;;
6392;SDS011;3229;42.674;23.282;2023-02-04T06:08:50;1.97;;;1.87;;
6392;SDS011;3229;42.674;23.282;2023-02-04T06:11:17;2.70;;;2.20;;
6392;SDS011;3229;42.674;23.282;2023-02-04T06:13:44;2.00;;;1.80;;
6392;SDS011;3229;42.674;23.282;2023-02-04T06:16:11;2.10;;;1.90;;
6392;SDS011;3229;42.674;23.282;2023-02-04T06:18:37;2.30;;;2.10;;
6392;SDS011;3229;42.674;23.282;2023-02-04T06:21:04;2.20;;;2.00;;
6392;SDS011;3229;42.674;23.282;2023-02-04T06:23:31;2.53;;;1.80;;
6392;SDS011;3229;42.674;23.282;2023-02-04T06:26:00;2.77;;;1.70;;
6392;SDS011;3229;42.674;23.282;2023-02-04T06:28:27;2.60;;;1.80;;
6392;SDS011;3229;42.674;23.282;2023-02-04T06:30:53;2.17;;;1.90;;
6392;SDS011;3229;42.674;23.282;2023-02-04T06:33:20;2.00;;;1.90;;
6392;SDS011;3229;42.674;23.282;2023-02-04T06:35:48;1.90;;;1.80;;
6392;SDS011;3229;42.674;23.282;2023-02-04T06:38:15;2.30;;;2.03;;
6392;SDS011;3229;42.674;23.282;2023-02-04T06:40:43;2.30;;;2.10;;
6392;SDS011;3229;42.674;23.282;2023-02-04T06:43:14;2.20;;;2.00;;
6392;SDS011;3229;42.674;23.282;2023-02-04T06:45:41;3.83;;;1.77;;
6392;SDS011;3229;42.674;23.282;2023-02-04T06:48:08;2.23;;;2.00;;
6392;SDS011;3229;42.674;23.282;2023-02-04T06:50:35;2.77;;;2.03;;
6392;SDS011;3229;42.674;23.282;2023-02-04T06:53:02;2.00;;;1.90;;
6392;SDS011;3229;42.674;23.282;2023-02-04T06:55:28;2.00;;;1.90;;
6392;SDS011;3229;42.674;23.282;2023-02-04T06:57:55;2.27;;;1.93;;
6392;SDS011;3229;42.674;23.282;2023-02-04T07:00:23;4.37;;;1.90;;
6392;SDS011;3229;42.674;23.282;2023-02-04T07:02:50;2.63;;;2.07;;
6392;SDS011;3229;42.674;23.282;2023-02-04T07:05:17;4.80;;;2.27;;
6392;SDS011;3229;42.674;23.282;2023-02-04T07:07:44;2.10;;;2.00;;
6392;SDS011;3229;42.674;23.282;2023-02-04T07:10:11;2.70;;;2.20;;
6392;SDS011;3229;42.674;23.282;2023-02-04T07:12:38;1.93;;;1.73;;
6392;SDS011;3229;42.674;23.282;2023-02-04T07:15:05;1.80;;;1.70;;
6392;SDS011;3229;42.674;23.282;2023-02-04T07:17:33;1.90;;;1.77;;
6392;SDS011;3229;42.674;23.282;2023-02-04T07:20:00;1.87;;;1.77;;
6392;SDS011;3229;42.674;23.282;2023-02-04T07:22:27;3.27;;;1.90;;
6392;SDS011;3229;42.674;23.282;2023-02-04T07:24:54;2.03;;;1.83;;
6392;SDS011;3229;42.674;23.282;2023-02-04T07:27:20;4.60;;;2.20;;
6392;SDS011;3229;42.674;23.282;2023-02-04T07:29:47;3.23;;;2.13;;
6392;SDS011;3229;42.674;23.282;2023-02-04T07:32:14;1.80;;;1.70;;
6392;SDS011;3229;42.674;23.282;2023-02-04T07:34:42;3.47;;;2.20;;
6392;SDS011;3229;42.674;23.282;2023-02-04T07:37:09;3.07;;;1.80;;
6392;SDS011;3229;42.674;23.282;2023-02-04T07:39:36;2.77;;;2.30;;
6392;SDS011;3229;42.674;23.282;2023-02-04T07:42:02;4.10;;;2.00;;
6392;SDS011;3229;42.674;23.282;2023-02-04T07:44:29;2.77;;;1.90;;
6392;SDS011;3229;42.674;23.282;2023-02-04T07:46:56;4.73;;;2.30;;
6392;SDS011;3229;42.674;23.282;2023-02-04T07:49:23;2.03;;;1.90;;
6392;SDS011;3229;42.674;23.282;2023-02-04T07:51:51;2.43;;;1.80;;
6392;SDS011;3229;42.674;23.282;2023-02-04T07:54:17;2.03;;;1.50;;
6392;SDS011;3229;42.674;23.282;2023-02-04T07:56:44;1.97;;;1.80;;
6392;SDS011;3229;42.674;23.282;2023-02-04T07:59:11;2.77;;;1.80;;
6392;SDS011;3229;42.674;23.282;2023-02-04T08:01:38;2.77;;;1.90;;
6392;SDS011;3229;42.674;23.282;2023-02-04T08:04:04;2.00;;;1.80;;
6392;SDS011;3229;42.674;23.282;2023-02-04T08:06:31;3.90;;;2.00;;
6392;SDS011;3229;42.674;23.282;2023-02-04T08:08:59;1.60;;;1.50;;
6392;SDS011;3229;42.674;23.282;2023-02-04T08:11:26;1.93;;;1.70;;
6392;SDS011;3229;42.674;23.282;2023-02-04T08:13:53;3.43;;;1.67;;
6392;SDS011;3229;42.674;23.282;2023-02-04T08:16:20;1.63;;;1.50;;
6392;SDS011;3229;42.674;23.282;2023-02-04T08:18:46;2.40;;;2.00;;
6392;SDS011;3229;42.674;23.282;2023-02-04T08:21:13;2.10;;;1.90;;
6392;SDS011;3229;42.674;23.282;2023-02-04T08:23:40;2.10;;;2.00;;
6392;SDS011;3229;42.674;23.282;2023-02-04T08:26:08;5.47;;;2.17;;
6392;SDS011;3229;42.674;23.282;2023-02-04T08:28:36;2.10;;;1.90;;
6392;SDS011;3229;42.674;23.282;2023-02-04T08:31:03;1.83;;;1.73;;
6392;SDS011;3229;42.674;23.282;2023-02-04T08:33:31;2.90;;;2.00;;
6392;SDS011;3229;42.674;23.282;2023-02-04T08:35:57;3.13;;;2.33;;
6392;SDS011;3229;42.674;23.282;2023-02-04T08:38:24;2.93;;;2.13;;
6392;SDS011;3229;42.674;23.282;2023-02-04T08:40:51;2.83;;;2.07;;
6392;SDS011;3229;42.674;23.282;2023-02-04T08:43:19;2.37;;;2.17;;
6392;SDS011;3229;42.674;23.282;2023-02-04T08:45:46;2.67;;;2.10;;
6392;SDS011;3229;42.674;23.282;2023-02-04T08:48:13;2.27;;;2.00;;
6392;SDS011;3229;42.674;23.282;2023-02-04T08:50:39;2.30;;;2.10;;
6392;SDS011;3229;42.674;23.282;2023-02-04T08:53:06;1.97;;;1.87;;
6392;SDS011;3229;42.674;23.282;2023-02-04T08:55:33;2.10;;;1.83;;
6392;SDS011;3229;42.674;23.282;2023-02-04T08:58:00;2.50;;;2.30;;
6392;SDS011;3229;42.674;23.282;2023-02-04T09:00:28;3.23;;;2.00;;
6392;SDS011;3229;42.674;23.282;2023-02-04T09:02:55;1.90;;;1.80;;
6392;SDS011;3229;42.674;23.282;2023-02-04T09:05:22;3.50;;;2.07;;
6392;SDS011;3229;42.674;23.282;2023-02-04T09:07:49;2.13;;;1.93;;
6392;SDS011;3229;42.674;23.282;2023-02-04T09:10:16;2.43;;;2.23;;
6392;SDS011;3229;42.674;23.282;2023-02-04T09:12:42;2.53;;;2.20;;
6392;SDS011;3229;42.674;23.282;2023-02-04T09:15:10;2.43;;;2.23;;
6392;SDS011;3229;42.674;23.282;2023-02-04T09:17:38;2.90;;;2.20;;
6392;SDS011;3229;42.674;23.282;2023-02-04T09:20:09;2.40;;;2.20;;
6392;SDS011;3229;42.674;23.282;2023-02-04T09:22:36;3.60;;;2.30;;
6392;SDS011;3229;42.674;23.282;2023-02-04T09:25:03;4.20;;;2.10;;
6392;SDS011;3229;42.674;23.282;2023-02-04T09:27:30;3.63;;;2.50;;
6392;SDS011;3229;42.674;23.282;2023-02-04T09:29:56;2.93;;;2.40;;
6392;SDS011;3229;42.674;23.282;2023-02-04T09:32:23;7.03;;;2.83;;
6392;SDS011;3229;42.674;23.282;2023-02-04T09:34:51;2.57;;;2.10;;
6392;SDS011;3229;42.674;23.282;2023-02-04T09:37:18;2.77;;;2.30;;
6392;SDS011;3229;42.674;23.282;2023-02-04T09:39:45;3.23;;;2.27;;
6392;SDS011;3229;42.674;23.282;2023-02-04T09:42:12;2.10;;;1.90;;
6392;SDS011;3229;42.674;23.282;2023-02-04T09:44:40;2.43;;;2.23;;
6392;SDS011;3229;42.674;23.282;2023-02-04T09:47:08;2.20;;;2.00;;
6392;SDS011;3229;42.674;23.282;2023-02-04T09:49:37;2.93;;;2.47;;
6392;SDS011;3229;42.674;23.282;2023-02-04T09:52:08;2.83;;;2.43;;
6392;SDS011;3229;42.674;23.282;2023-02-04T09:54:36;4.03;;;1.83;;
6392;SDS011;3229;42.674;23.282;2023-02-04T09:57:06;2.50;;;2.07;;
6392;SDS011;3229;42.674;23.282;2023-02-04T09:59:37;3.07;;;2.30;;
6392;SDS011;3229;42.674;23.282;2023-02-04T10:02:06;3.07;;;2.73;;
6392;SDS011;3229;42.674;23.282;2023-02-04T10:04:45;3.00;;;2.27;;
6392;SDS011;3229;42.674;23.282;2023-02-04T10:07:13;2.80;;;2.60;;
6392;SDS011;3229;42.674;23.282;2023-02-04T10:09:46;2.47;;;2.20;;
6392;SDS011;3229;42.674;23.282;2023-02-04T10:12:14;2.60;;;2.40;;
6392;SDS011;3229;42.674;23.282;2023-02-04T10:14:41;2.23;;;2.00;;
6392;SDS011;3229;42.674;23.282;2023-02-04T10:17:09;3.37;;;2.77;;
6392;SDS011;3229;42.674;23.282;2023-02-04T10:19:38;3.07;;;2.53;;
6392;SDS011;3229;42.674;23.282;2023-02-04T10:22:09;2.73;;;2.40;;
6392;SDS011;3229;42.674;23.282;2023-02-04T10:24:43;2.10;;;2.00;;
6392;SDS011;3229;42.674;23.282;2023-02-04T10:27:11;2.30;;;2.10;;
6392;SDS011;3229;42.674;23.282;2023-02-04T10:29:40;2.73;;;2.20;;
6392;SDS011;3229;42.674;23.282;2023-02-04T10:34:55;2.87;;;1.90;;
6392;SDS011;3229;42.674;23.282;2023-02-04T10:37:25;2.83;;;2.00;;
6392;SDS011;3229;42.674;23.282;2023-02-04T10:39:52;2.50;;;2.30;;
6392;SDS011;3229;42.674;23.282;2023-02-04T10:42:19;2.30;;;2.10;;
6392;SDS011;3229;42.674;23.282;2023-02-04T10:44:48;2.30;;;2.10;;
6392;SDS011;3229;42.674;23.282;2023-02-04T10:47:16;2.90;;;2.10;;
6392;SDS011;3229;42.674;23.282;2023-02-04T10:49:51;1.80;;;1.70;;
6392;SDS011;3229;42.674;23.282;2023-02-04T10:52:19;3.20;;;2.30;;
6392;SDS011;3229;42.674;23.282;2023-02-04T10:54:48;3.33;;;2.43;;
6392;SDS011;3229;42.674;23.282;2023-02-04T10:57:16;4.70;;;2.77;;
6392;SDS011;3229;42.674;23.282;2023-02-04T10:59:45;2.53;;;2.33;;
6392;SDS011;3229;42.674;23.282;2023-02-04T11:05:09;4.17;;;2.30;;
6392;SDS011;3229;42.674;23.282;2023-02-04T11:07:39;2.70;;;2.20;;
6392;SDS011;3229;42.674;23.282;2023-02-04T11:10:10;3.83;;;2.30;;
6392;SDS011;3229;42.674;23.282;2023-02-04T11:12:40;3.17;;;2.60;;
6392;SDS011;3229;42.674;23.282;2023-02-04T11:18:12;3.70;;;2.17;;
6392;SDS011;3229;42.674;23.282;2023-02-04T11:20:52;2.80;;;2.10;;
6392;SDS011;3229;42.674;23.282;2023-02-04T11:23:32;1.97;;;1.87;;
6392;SDS011;3229;42.674;23.282;2023-02-04T11:26:06;2.50;;;1.97;;
6392;SDS011;3229;42.674;23.282;2023-02-04T11:31:27;3.30;;;2.20;;
6392;SDS011;3229;42.674;23.282;2023-02-04T11:34:08;2.37;;;2.10;;
6392;SDS011;3229;42.674;23.282;2023-02-04T11:36:53;2.40;;;2.20;;
6392;SDS011;3229;42.674;23.282;2023-02-04T11:39:24;2.17;;;2.00;;
6392;SDS011;3229;42.674;23.282;2023-02-04T11:41:55;2.40;;;2.20;;
6392;SDS011;3229;42.674;23.282;2023-02-04T11:44:24;1.80;;;1.70;;
6392;SDS011;3229;42.674;23.282;2023-02-04T11:46:51;2.10;;;2.00;;
6392;SDS011;3229;42.674;23.282;2023-02-04T11:49:19;2.23;;;2.13;;
6392;SDS011;3229;42.674;23.282;2023-02-04T11:51:48;2.63;;;2.10;;
6392;SDS011;3229;42.674;23.282;2023-02-04T11:54:15;2.93;;;2.07;;
6392;SDS011;3229;42.674;23.282;2023-02-04T11:56:44;2.00;;;1.90;;
6392;SDS011;3229;42.674;23.282;2023-02-04T11:59:13;2.87;;;2.23;;
6392;SDS011;3229;42.674;23.282;2023-02-04T12:01:41;2.30;;;2.10;;
6392;SDS011;3229;42.674;23.282;2023-02-04T12:04:19;2.10;;;1.90;;
6392;SDS011;3229;42.674;23.282;2023-02-04T12:06:55;3.23;;;2.03;;
6392;SDS011;3229;42.674;23.282;2023-02-04T12:09:24;2.07;;;1.90;;
6392;SDS011;3229;42.674;23.282;2023-02-04T12:11:54;1.90;;;1.80;;
6392;SDS011;3229;42.674;23.282;2023-02-04T12:14:26;1.90;;;1.80;;
6392;SDS011;3229;42.674;23.282;2023-02-04T12:16:54;1.93;;;1.83;;
6392;SDS011;3229;42.674;23.282;2023-02-04T12:19:21;2.00;;;1.90;;
6392;SDS011;3229;42.674;23.282;2023-02-04T12:21:48;2.30;;;2.10;;
6392;SDS011;3229;42.674;23.282;2023-02-04T12:24:15;2.53;;;1.80;;
6392;SDS011;3229;42.674;23.282;2023-02-04T12:26:42;3.90;;;2.07;;
6392;SDS011;3229;42.674;23.282;2023-02-04T12:29:09;2.23;;;2.03;;
6392;SDS011;3229;42.674;23.282;2023-02-04T12:31:37;4.10;;;2.30;;
6392;SDS011;3229;42.674;23.282;2023-02-04T12:34:03;1.90;;;1.80;;
6392;SDS011;3229;42.674;23.282;2023-02-04T12:36:30;2.30;;;2.10;;
6392;SDS011;3229;42.674;23.282;2023-02-04T12:38:57;2.40;;;2.20;;
6392;SDS011;3229;42.674;23.282;2023-02-04T12:41:24;1.80;;;1.70;;
6392;SDS011;3229;42.674;23.282;2023-02-04T12:43:51;2.13;;;1.93;;
6392;SDS011;3229;42.674;23.282;2023-02-04T12:46:19;2.13;;;2.03;;
6392;SDS011;3229;42.674;23.282;2023-02-04T12:48:47;2.10;;;1.90;;
6392;SDS011;3229;42.674;23.282;2023-02-04T12:51:14;1.90;;;1.80;;
6392;SDS011;3229;42.674;23.282;2023-02-04T12:53:41;1.60;;;1.50;;
6392;SDS011;3229;42.674;23.282;2023-02-04T12:56:08;2.00;;;1.90;;
6392;SDS011;3229;42.674;23.282;2023-02-04T12:58:34;3.93;;;2.10;;
6392;SDS011;3229;42.674;23.282;2023-02-04T13:01:01;2.07;;;1.87;;
6392;SDS011;3229;42.674;23.282;2023-02-04T13:03:28;1.73;;;1.63;;
6392;SDS011;3229;42.674;23.282;2023-02-04T13:05:56;1.50;;;1.40;;
6392;SDS011;3229;42.674;23.282;2023-02-04T13:08:23;2.00;;;1.80;;
6392;SDS011;3229;42.674;23.282;2023-02-04T13:10:50;1.90;;;1.80;;
6392;SDS011;3229;42.674;23.282;2023-02-04T13:13:17;1.90;;;1.80;;
6392;SDS011;3229;42.674;23.282;2023-02-04T13:15:44;1.83;;;1.73;;
6392;SDS011;3229;42.674;23.282;2023-02-04T13:18:11;1.70;;;1.60;;
6392;SDS011;3229;42.674;23.282;2023-02-04T13:20:38;1.77;;;1.67;;
6392;SDS011;3229;42.674;23.282;2023-02-04T13:23:06;1.60;;;1.50;;
6392;SDS011;3229;42.674;23.282;2023-02-04T13:25:34;1.70;;;1.60;;
6392;SDS011;3229;42.674;23.282;2023-02-04T13:28:00;1.80;;;1.70;;
6392;SDS011;3229;42.674;23.282;2023-02-04T13:30:27;1.70;;;1.60;;
6392;SDS011;3229;42.674;23.282;2023-02-04T13:32:54;2.40;;;1.70;;
6392;SDS011;3229;42.674;23.282;2023-02-04T13:35:21;2.10;;;1.70;;
6392;SDS011;3229;42.674;23.282;2023-02-04T13:37:49;1.53;;;1.43;;
6392;SDS011;3229;42.674;23.282;2023-02-04T13:40:17;1.77;;;1.67;;
6392;SDS011;3229;42.674;23.282;2023-02-04T13:42:44;2.03;;;1.93;;
6392;SDS011;3229;42.674;23.282;2023-02-04T13:45:11;1.70;;;1.60;;
6392;SDS011;3229;42.674;23.282;2023-02-04T13:47:40;2.80;;;1.50;;
6392;SDS011;3229;42.674;23.282;2023-02-04T13:50:07;1.60;;;1.50;;
6392;SDS011;3229;42.674;23.282;2023-02-04T13:52:34;3.17;;;1.60;;
6392;SDS011;3229;42.674;23.282;2023-02-04T13:55:01;1.53;;;1.50;;
6392;SDS011;3229;42.674;23.282;2023-02-04T13:57:29;1.60;;;1.50;;
6392;SDS011;3229;42.674;23.282;2023-02-04T13:59:57;1.70;;;1.60;;
6392;SDS011;3229;42.674;23.282;2023-02-04T14:02:23;1.70;;;1.60;;
6392;SDS011;3229;42.674;23.282;2023-02-04T14:04:50;1.70;;;1.60;;
6392;SDS011;3229;42.674;23.282;2023-02-04T14:07:17;1.97;;;1.80;;
6392;SDS011;3229;42.674;23.282;2023-02-04T14:09:44;2.90;;;1.87;;
6392;SDS011;3229;42.674;23.282;2023-02-04T14:12:12;1.50;;;1.47;;
6392;SDS011;3229;42.674;23.282;2023-02-04T14:14:40;2.37;;;1.90;;
6392;SDS011;3229;42.674;23.282;2023-02-04T14:17:07;1.90;;;1.80;;
6392;SDS011;3229;42.674;23.282;2023-02-04T14:19:34;1.90;;;1.80;;
6392;SDS011;3229;42.674;23.282;2023-02-04T14:22:01;1.93;;;1.83;;
6392;SDS011;3229;42.674;23.282;2023-02-04T14:24:28;1.80;;;1.70;;
6392;SDS011;3229;42.674;23.282;2023-02-04T14:26:54;2.17;;;1.83;;
6392;SDS011;3229;42.674;23.282;2023-02-04T14:29:21;2.03;;;1.80;;
6392;SDS011;3229;42.674;23.282;2023-02-04T14:31:49;1.87;;;1.73;;
6392;SDS011;3229;42.674;23.282;2023-02-04T14:34:16;1.90;;;1.80;;
6392;SDS011;3229;42.674;23.282;2023-02-04T14:36:43;1.80;;;1.70;;
6392;SDS011;3229;42.674;23.282;2023-02-04T14:39:10;1.87;;;1.60;;
6392;SDS011;3229;42.674;23.282;2023-02-04T14:41:37;2.10;;;2.00;;
6392;SDS011;3229;42.674;23.282;2023-02-04T14:44:03;1.60;;;1.50;;
6392;SDS011;3229;42.674;23.282;2023-02-04T14:46:30;2.13;;;1.83;;
6392;SDS011;3229;42.674;23.282;2023-02-04T14:48:59;1.90;;;1.73;;
6392;SDS011;3229;42.674;23.282;2023-02-04T14:51:25;1.87;;;1.77;;
6392;SDS011;3229;42.674;23.282;2023-02-04T14:53:52;2.07;;;1.80;;
6392;SDS011;3229;42.674;23.282;2023-02-04T14:56:19;1.70;;;1.60;;
6392;SDS011;3229;42.674;23.282;2023-02-04T14:58:46;1.90;;;1.80;;
6392;SDS011;3229;42.674;23.282;2023-02-04T15:01:12;1.70;;;1.60;;
6392;SDS011;3229;42.674;23.282;2023-02-04T15:03:39;1.73;;;1.63;;
6392;SDS011;3229;42.674;23.282;2023-02-04T15:06:07;1.50;;;1.50;;
6392;SDS011;3229;42.674;23.282;2023-02-04T15:08:34;1.77;;;1.67;;
6392;SDS011;3229;42.674;23.282;2023-02-04T15:11:01;1.70;;;1.60;;
6392;SDS011;3229;42.674;23.282;2023-02-04T15:13:28;2.03;;;1.93;;